Time;durP1;ratioP1;P1;durP2;ratioP2;P2;SDS_P1;SDS_P2;PMS_P1;PMS_P2;Temp;Humidity;BMP_temperature;BMP_pressure;BME280_temperature;BME280_humidity;BME280_pressure;Samples;Min_cycle;Max_cycle;Signal;HPM_P1;HPM_P2
2022/05/18 00:00:21;;;;;;;0.03;0.03;;;;;;;;;;5135359;27;20203;-79
2022/05/18 00:02:49;;;;;;;0.00;0.00;;;;;;;;;;5158384;27;20201;-79
2022/05/18 00:05:17;;;;;;;0.10;0.10;;;;;;;;;;5135305;27;20273;-78
2022/05/18 00:07:43;;;;;;;0.10;0.10;;;;;;;;;;5158986;27;20431;-78
2022/05/18 00:10:10;;;;;;;0.10;0.10;;;;;;;;;;5134113;27;20217;-77
2022/05/18 00:12:43;;;;;;;5.40;5.20;;;;;;;;;;5159341;27;20195;-78
2022/05/18 00:15:09;;;;;;;0.10;0.10;;;;;;;;;;5134340;27;20362;-78
2022/05/18 00:17:36;;;;;;;0.00;0.00;;;;;;;;;;5159700;27;20195;-79
2022/05/18 00:20:02;;;;;;;0.03;0.03;;;;;;;;;;5143844;27;20295;-77
2022/05/18 00:22:29;;;;;;;0.00;0.00;;;;;;;;;;5149435;27;20435;-78
2022/05/18 00:24:56;;;;;;;0.00;0.00;;;;;;;;;;5143744;27;20197;-78
2022/05/18 00:27:22;;;;;;;0.00;0.00;;;;;;;;;;5149139;27;20237;-78
2022/05/18 00:29:48;;;;;;;0.03;0.03;;;;;;;;;;5144293;27;20390;-79
2022/05/18 00:32:15;;;;;;;0.03;0.03;;;;;;;;;;5149331;27;20274;-78
2022/05/18 00:34:41;;;;;;;0.00;0.00;;;;;;;;;;5143795;27;20510;-79
2022/05/18 00:37:07;;;;;;;0.10;0.10;;;;;;;;;;5149256;27;20583;-79
2022/05/18 00:39:35;;;;;;;0.00;0.00;;;;;;;;;;5143595;27;20245;-78
2022/05/18 00:42:01;;;;;;;0.10;0.10;;;;;;;;;;5148745;27;20590;-77
2022/05/18 00:44:27;;;;;;;0.10;0.10;;;;;;;;;;5144536;27;20208;-79
2022/05/18 00:46:54;;;;;;;0.00;0.00;;;;;;;;;;5147703;27;20283;-78
2022/05/18 00:49:20;;;;;;;0.00;0.00;;;;;;;;;;5144953;27;20236;-78
2022/05/18 00:51:48;;;;;;;0.00;0.00;;;;;;;;;;5146407;27;20237;-78
2022/05/18 00:54:17;;;;;;;0.00;0.00;;;;;;;;;;5146086;27;20204;-78
2022/05/18 00:56:48;;;;;;;0.10;0.10;;;;;;;;;;5146250;27;20246;-77
2022/05/18 00:59:16;;;;;;;0.00;0.00;;;;;;;;;;5146146;27;20204;-78
2022/05/18 01:01:43;;;;;;;0.00;0.00;;;;;;;;;;5146091;27;20297;-78
2022/05/18 01:04:10;;;;;;;0.00;0.00;;;;;;;;;;5146861;27;20265;-80
2022/05/18 01:06:38;;;;;;;0.10;0.10;;;;;;;;;;5144955;27;20434;-78
2022/05/18 01:09:05;;;;;;;0.00;0.00;;;;;;;;;;5147381;27;20229;-78
2022/05/18 01:11:33;;;;;;;0.00;0.00;;;;;;;;;;5144234;27;20238;-77
2022/05/18 01:14:00;;;;;;;0.00;0.00;;;;;;;;;;5147822;27;20247;-78
2022/05/18 01:16:27;;;;;;;0.10;0.10;;;;;;;;;;5143846;27;20419;-78
2022/05/18 01:18:54;;;;;;;0.00;0.00;;;;;;;;;;5148539;27;20203;-77
2022/05/18 01:21:20;;;;;;;0.10;0.10;;;;;;;;;;5142654;27;20247;-78
2022/05/18 01:23:51;;;;;;;0.00;0.00;;;;;;;;;;5149964;27;20217;-78
2022/05/18 01:26:19;;;;;;;0.00;0.00;;;;;;;;;;5145504;27;20287;-78
2022/05/18 01:28:50;;;;;;;0.10;0.10;;;;;;;;;;5153151;27;20239;-79
2022/05/18 01:31:16;;;;;;;0.00;0.00;;;;;;;;;;5145434;27;20248;-79
2022/05/18 01:33:43;;;;;;;0.00;0.00;;;;;;;;;;5154164;27;20211;-77
2022/05/18 01:36:09;;;;;;;0.03;0.03;;;;;;;;;;5144945;27;20242;-78
2022/05/18 01:38:35;;;;;;;0.10;0.10;;;;;;;;;;5154312;27;20217;-78
2022/05/18 01:41:05;;;;;;;0.10;0.10;;;;;;;;;;5143676;27;20555;-77
2022/05/18 01:43:33;;;;;;;0.10;0.10;;;;;;;;;;5155038;27;20243;-78
2022/05/18 01:46:02;;;;;;;0.10;0.10;;;;;;;;;;5143581;27;20240;-78
2022/05/18 01:48:29;;;;;;;0.10;0.10;;;;;;;;;;5155329;27;20258;-78
2022/05/18 01:50:55;;;;;;;0.00;0.00;;;;;;;;;;5142247;27;20296;-78
2022/05/18 01:53:22;;;;;;;0.10;0.10;;;;;;;;;;5156040;27;20205;-78
2022/05/18 01:55:48;;;;;;;0.00;0.00;;;;;;;;;;5141933;27;20462;-78
2022/05/18 01:58:15;;;;;;;0.00;0.00;;;;;;;;;;5156820;27;20501;-78
2022/05/18 02:00:42;;;;;;;0.10;0.10;;;;;;;;;;5140790;27;20237;-78
2022/05/18 02:03:10;;;;;;;0.10;0.10;;;;;;;;;;5157333;27;20207;-78
2022/05/18 02:05:37;;;;;;;0.10;0.10;;;;;;;;;;5140129;27;20242;-77
2022/05/18 02:08:03;;;;;;;0.10;0.10;;;;;;;;;;5158275;27;20213;-78
2022/05/18 02:10:30;;;;;;;0.10;0.10;;;;;;;;;;5139252;27;20635;-78
2022/05/18 02:12:56;;;;;;;0.10;0.10;;;;;;;;;;5159239;27;20205;-78
2022/05/18 02:15:23;;;;;;;0.10;0.10;;;;;;;;;;5137836;27;20206;-78
2022/05/18 02:17:50;;;;;;;0.10;0.10;;;;;;;;;;5159832;27;20253;-78
2022/05/18 02:20:17;;;;;;;0.00;0.00;;;;;;;;;;5137210;27;20680;-77
2022/05/18 02:22:43;;;;;;;0.00;0.00;;;;;;;;;;5160604;27;20228;-77
2022/05/18 02:25:10;;;;;;;0.00;0.00;;;;;;;;;;5136080;27;20223;-78
2022/05/18 02:27:36;;;;;;;0.00;0.00;;;;;;;;;;5161621;27;20423;-78
2022/05/18 02:30:04;;;;;;;0.00;0.00;;;;;;;;;;5145808;27;20221;-77
2022/05/18 02:32:30;;;;;;;0.10;0.10;;;;;;;;;;5134102;27;20203;-78
2022/05/18 02:34:56;;;;;;;0.03;0.03;;;;;;;;;;5146109;27;20197;-78
2022/05/18 02:37:24;;;;;;;0.10;0.10;;;;;;;;;;5151228;27;20243;-78
2022/05/18 02:39:50;;;;;;;0.10;0.10;;;;;;;;;;5145701;27;20217;-78
2022/05/18 02:42:17;;;;;;;0.10;0.10;;;;;;;;;;5151049;27;20248;-79
2022/05/18 02:44:43;;;;;;;0.10;0.10;;;;;;;;;;5145897;27;20246;-78
2022/05/18 02:47:09;;;;;;;0.10;0.10;;;;;;;;;;5150802;27;20290;-78
2022/05/18 02:49:35;;;;;;;0.00;0.00;;;;;;;;;;5145566;27;20297;-78
2022/05/18 02:52:02;;;;;;;0.10;0.10;;;;;;;;;;5150394;27;20260;-78
2022/05/18 02:57:13;;;;;;;0.00;0.00;;;;;;;;;;5150894;27;20637;-78
2022/05/18 02:59:40;;;;;;;0.00;0.00;;;;;;;;;;5145232;27;20386;-78
2022/05/18 03:02:06;;;;;;;0.10;0.10;;;;;;;;;;5150558;27;20242;-79
2022/05/18 03:04:33;;;;;;;0.10;0.10;;;;;;;;;;5145527;27;20215;-78
2022/05/18 03:06:59;;;;;;;0.00;0.00;;;;;;;;;;5149928;27;20240;-78
2022/05/18 03:09:27;;;;;;;0.00;0.00;;;;;;;;;;5145576;27;20239;-78
2022/05/18 03:11:55;;;;;;;0.10;0.10;;;;;;;;;;5148830;27;20251;-79
2022/05/18 03:14:21;;;;;;;0.00;0.00;;;;;;;;;;5146768;27;20303;-79
2022/05/18 03:16:50;;;;;;;0.03;0.03;;;;;;;;;;5148137;27;20240;-78
2022/05/18 03:19:17;;;;;;;0.10;0.10;;;;;;;;;;5146902;27;20202;-78
2022/05/18 03:24:27;;;;;;;0.10;0.10;;;;;;;;;;5145165;27;20249;-78
2022/05/18 03:26:55;;;;;;;0.10;0.10;;;;;;;;;;5148871;27;20473;-78
2022/05/18 03:29:22;;;;;;;0.10;0.10;;;;;;;;;;5145848;27;20201;-77
2022/05/18 03:31:48;;;;;;;0.10;0.10;;;;;;;;;;5147884;27;20251;-77
2022/05/18 03:34:16;;;;;;;0.10;0.10;;;;;;;;;;5146973;27;20229;-77
2022/05/18 03:36:43;;;;;;;0.10;0.10;;;;;;;;;;5147013;27;20244;-78
2022/05/18 03:39:09;;;;;;;0.00;0.00;;;;;;;;;;5147544;27;20211;-78
2022/05/18 03:41:36;;;;;;;0.10;0.10;;;;;;;;;;5145956;27;20287;-78
2022/05/18 03:44:03;;;;;;;0.10;0.10;;;;;;;;;;5148783;27;20203;-78
2022/05/18 03:46:30;;;;;;;0.00;0.00;;;;;;;;;;5144900;27;20567;-78
2022/05/18 03:48:56;;;;;;;0.10;0.10;;;;;;;;;;5148761;27;20212;-77
2022/05/18 03:51:24;;;;;;;0.10;0.10;;;;;;;;;;5144275;27;20624;-77
2022/05/18 03:53:50;;;;;;;0.10;0.10;;;;;;;;;;5149727;27;20224;-78
2022/05/18 03:56:17;;;;;;;0.07;0.07;;;;;;;;;;5142041;27;20501;-78
2022/05/18 03:58:43;;;;;;;0.10;0.10;;;;;;;;;;5151918;27;20243;-78
2022/05/18 04:01:11;;;;;;;0.00;0.00;;;;;;;;;;5141586;27;20240;-77
2022/05/18 04:03:39;;;;;;;0.10;0.10;;;;;;;;;;5151801;27;20263;-79
2022/05/18 04:06:05;;;;;;;0.10;0.10;;;;;;;;;;5140260;27;20251;-79
2022/05/18 04:08:32;;;;;;;0.10;0.10;;;;;;;;;;5153227;27;20205;-78
2022/05/18 04:10:58;;;;;;;0.10;0.10;;;;;;;;;;5140222;27;20281;-78
2022/05/18 04:13:25;;;;;;;0.10;0.10;;;;;;;;;;5153219;27;20204;-77
2022/05/18 04:15:52;;;;;;;0.10;0.10;;;;;;;;;;5139679;27;20574;-79
2022/05/18 04:18:22;;;;;;;0.00;0.00;;;;;;;;;;5154088;27;20201;-78
2022/05/18 04:20:48;;;;;;;0.10;0.10;;;;;;;;;;5139055;27;20241;-78
2022/05/18 04:23:15;;;;;;;0.03;0.03;;;;;;;;;;5154475;27;20300;-78
2022/05/18 04:25:42;;;;;;;0.10;0.10;;;;;;;;;;5137985;27;20249;-78
2022/05/18 04:28:08;;;;;;;0.10;0.10;;;;;;;;;;5155301;27;20212;-78
2022/05/18 04:30:35;;;;;;;0.10;0.10;;;;;;;;;;5137406;27;20307;-77
2022/05/18 04:33:02;;;;;;;0.10;0.10;;;;;;;;;;5156053;27;20262;-78
2022/05/18 04:35:31;;;;;;;0.10;0.10;;;;;;;;;;5136288;27;20532;-78
2022/05/18 04:37:57;;;;;;;0.10;0.10;;;;;;;;;;5156159;27;20214;-77
2022/05/18 04:40:24;;;;;;;0.10;0.10;;;;;;;;;;5136013;27;20541;-78
2022/05/18 04:42:51;;;;;;;0.03;0.03;;;;;;;;;;5157104;27;20201;-78
2022/05/18 04:45:19;;;;;;;0.00;0.00;;;;;;;;;;5133536;27;20375;-79
2022/05/18 04:47:45;;;;;;;0.10;0.10;;;;;;;;;;5157515;27;20501;-78
2022/05/18 04:50:12;;;;;;;0.10;0.10;;;;;;;;;;5133686;27;20220;-78
2022/05/18 04:52:39;;;;;;;0.10;0.10;;;;;;;;;;5158835;27;20206;-77
2022/05/18 04:55:08;;;;;;;0.10;0.10;;;;;;;;;;5133120;27;20508;-77
2022/05/18 04:57:34;;;;;;;0.10;0.10;;;;;;;;;;5159183;27;20372;-78
2022/05/18 05:00:00;;;;;;;0.00;0.00;;;;;;;;;;5144711;27;20248;-78
2022/05/18 05:02:27;;;;;;;0.07;0.07;;;;;;;;;;5153172;27;20244;-79
2022/05/18 05:04:53;;;;;;;0.10;0.10;;;;;;;;;;5147771;27;20201;-78
2022/05/18 05:07:20;;;;;;;0.00;0.00;;;;;;;;;;5152954;27;20244;-77
2022/05/18 05:09:47;;;;;;;0.10;0.10;;;;;;;;;;5148108;27;20201;-77
2022/05/18 05:12:13;;;;;;;0.10;0.10;;;;;;;;;;5152582;27;20240;-79
2022/05/18 05:14:40;;;;;;;0.10;0.10;;;;;;;;;;5147722;27;20229;-78
2022/05/18 05:17:06;;;;;;;0.10;0.10;;;;;;;;;;5152835;27;20276;-78
2022/05/18 05:19:33;;;;;;;0.00;0.00;;;;;;;;;;5146415;27;20208;-78
2022/05/18 05:21:59;;;;;;;0.10;0.10;;;;;;;;;;5152115;27;20269;-78
2022/05/18 05:24:26;;;;;;;0.10;0.10;;;;;;;;;;5148247;27;20217;-78
2022/05/18 05:26:53;;;;;;;0.10;0.10;;;;;;;;;;5150889;27;20469;-78
2022/05/18 05:29:20;;;;;;;0.00;0.00;;;;;;;;;;5149173;27;20202;-77
2022/05/18 05:31:47;;;;;;;0.00;0.00;;;;;;;;;;5149949;27;20247;-77
2022/05/18 05:34:13;;;;;;;0.10;0.10;;;;;;;;;;5149551;27;20247;-78
2022/05/18 05:36:40;;;;;;;0.10;0.10;;;;;;;;;;5149134;27;20240;-78
2022/05/18 05:39:06;;;;;;;0.10;0.10;;;;;;;;;;5150344;27;20212;-78
2022/05/18 05:41:38;;;;;;;0.10;0.10;;;;;;;;;;5145137;27;20239;-77
2022/05/18 05:44:05;;;;;;;0.10;0.10;;;;;;;;;;5150292;27;20201;-77
2022/05/18 05:46:32;;;;;;;0.10;0.10;;;;;;;;;;5147857;27;20300;-78
2022/05/18 05:49:00;;;;;;;0.00;0.00;;;;;;;;;;5151383;27;20208;-78
2022/05/18 05:51:26;;;;;;;0.00;0.00;;;;;;;;;;5146359;27;20264;-77
2022/05/18 05:53:52;;;;;;;0.10;0.10;;;;;;;;;;5151968;27;20257;-77
2022/05/18 05:56:19;;;;;;;0.10;0.10;;;;;;;;;;5146135;27;20238;-77
2022/05/18 05:58:47;;;;;;;0.00;0.00;;;;;;;;;;5152827;27;20414;-78
2022/05/18 06:01:16;;;;;;;0.00;0.00;;;;;;;;;;5145214;27;20281;-79
2022/05/18 06:03:42;;;;;;;0.10;0.10;;;;;;;;;;5153319;27;20252;-78
2022/05/18 06:06:10;;;;;;;0.00;0.00;;;;;;;;;;5144153;27;20551;-78
2022/05/18 06:08:36;;;;;;;0.00;0.00;;;;;;;;;;5154071;27;20205;-78
2022/05/18 06:11:03;;;;;;;0.10;0.10;;;;;;;;;;5142924;27;20297;-78
2022/05/18 06:13:29;;;;;;;0.10;0.10;;;;;;;;;;5154912;27;20204;-78
2022/05/18 06:15:56;;;;;;;0.10;0.10;;;;;;;;;;5142536;27;20246;-77
2022/05/18 06:18:26;;;;;;;0.10;0.10;;;;;;;;;;5155684;27;20211;-78
2022/05/18 06:20:53;;;;;;;0.10;0.10;;;;;;;;;;5142354;27;20234;-77
2022/05/18 06:23:19;;;;;;;0.10;0.10;;;;;;;;;;5155854;27;20203;-76
2022/05/18 06:25:46;;;;;;;0.10;0.10;;;;;;;;;;5140738;27;20552;-76
2022/05/18 06:28:13;;;;;;;0.10;0.10;;;;;;;;;;5157195;27;20202;-60
2022/05/18 06:30:39;;;;;;;0.10;0.10;;;;;;;;;;5140358;27;20236;-60
2022/05/18 06:33:05;;;;;;;0.10;0.10;;;;;;;;;;5157722;27;20201;-59
2022/05/18 06:35:33;;;;;;;0.10;0.10;;;;;;;;;;5139109;27;20241;-59
2022/05/18 06:37:59;;;;;;;0.10;0.10;;;;;;;;;;5158577;27;20525;-60
2022/05/18 06:41:21;;;;;;;0.10;0.10;;;;;;;;;;5138332;27;20565;-59
2022/05/18 06:43:12;;;;;;;0.10;0.10;;;;;;;;;;5156686;27;20454;-60
2022/05/18 06:45:38;;;;;;;0.10;0.10;;;;;;;;;;5139797;27;20238;-60
2022/05/18 06:48:05;;;;;;;0.53;0.53;;;;;;;;;;5157884;27;20414;-60
2022/05/18 06:50:33;;;;;;;0.00;0.00;;;;;;;;;;5138739;27;20261;-61
2022/05/18 06:52:59;;;;;;;0.10;0.10;;;;;;;;;;5158637;27;20255;-61
2022/05/18 06:55:25;;;;;;;0.03;0.03;;;;;;;;;;5137941;27;20210;-59
2022/05/18 06:57:51;;;;;;;0.10;0.10;;;;;;;;;;5159384;27;20709;-58
2022/05/18 07:00:18;;;;;;;0.10;0.10;;;;;;;;;;5136648;27;20239;-59
2022/05/18 07:02:44;;;;;;;0.10;0.10;;;;;;;;;;5160387;27;20203;-61
2022/05/18 07:05:11;;;;;;;0.00;0.00;;;;;;;;;;5135748;27;20204;-59
2022/05/18 07:07:38;;;;;;;0.10;0.10;;;;;;;;;;5161069;27;20568;-59
2022/05/18 07:10:05;;;;;;;0.10;0.10;;;;;;;;;;5145574;27;20209;-58
2022/05/18 07:12:32;;;;;;;0.00;0.00;;;;;;;;;;5133734;27;20222;-60
2022/05/18 07:14:59;;;;;;;0.10;0.10;;;;;;;;;;5145988;27;20450;-60
2022/05/18 07:17:25;;;;;;;0.10;0.10;;;;;;;;;;5150804;27;20418;-61
2022/05/18 07:19:52;;;;;;;0.00;0.00;;;;;;;;;;5145735;27;20204;-59
2022/05/18 07:22:18;;;;;;;0.10;0.10;;;;;;;;;;5150050;27;20248;-59
2022/05/18 07:24:46;;;;;;;0.03;0.03;;;;;;;;;;5145660;27;20276;-61
2022/05/18 07:27:12;;;;;;;0.07;0.07;;;;;;;;;;5150783;27;20254;-60
2022/05/18 07:29:38;;;;;;;0.10;0.10;;;;;;;;;;5145219;27;20209;-60
2022/05/18 07:32:13;;;;;;;0.03;0.03;;;;;;;;;;5150267;27;20255;-59
2022/05/18 07:34:40;;;;;;;0.10;0.10;;;;;;;;;;5145295;27;20201;-60
2022/05/18 07:37:07;;;;;;;0.03;0.03;;;;;;;;;;5150483;27;20239;-60
2022/05/18 07:39:33;;;;;;;0.10;0.10;;;;;;;;;;5144791;27;20216;-61
2022/05/18 07:42:01;;;;;;;0.10;0.10;;;;;;;;;;5149410;27;20246;-61
2022/05/18 07:44:27;;;;;;;0.03;0.03;;;;;;;;;;5145898;27;20209;-60
2022/05/18 07:46:55;;;;;;;0.10;0.10;;;;;;;;;;5148766;27;20236;-61
2022/05/18 07:49:21;;;;;;;0.00;0.00;;;;;;;;;;5146507;27;20207;-60
2022/05/18 07:51:48;;;;;;;0.10;0.10;;;;;;;;;;5147662;27;20375;-60
2022/05/18 07:54:14;;;;;;;0.00;0.00;;;;;;;;;;5146891;27;20201;-60
2022/05/18 07:56:41;;;;;;;0.00;0.00;;;;;;;;;;5146506;27;20241;-60
2022/05/18 07:59:09;;;;;;;0.10;0.10;;;;;;;;;;5148279;27;20202;-59
2022/05/18 08:01:36;;;;;;;0.00;0.00;;;;;;;;;;5146061;27;20232;-59
2022/05/18 08:04:02;;;;;;;0.03;0.03;;;;;;;;;;5148586;27;20201;-61
2022/05/18 08:06:29;;;;;;;0.00;0.00;;;;;;;;;;5144975;27;20299;-60
2022/05/18 08:08:55;;;;;;;0.05;0.05;;;;;;;;;;5149812;27;20204;-61
2022/05/18 08:16:51;;;;;;;0.10;0.10;;;;;;;;;;5147931;27;20332;-60
2022/05/18 08:19:18;;;;;;;0.00;0.00;;;;;;;;;;5146870;27;20351;-61
2022/05/18 08:21:44;;;;;;;0.10;0.10;;;;;;;;;;5146347;27;20250;-59
2022/05/18 08:24:11;;;;;;;0.10;0.10;;;;;;;;;;5147693;27;20201;-60
2022/05/18 08:26:38;;;;;;;0.10;0.10;;;;;;;;;;5146065;27;20249;-59
2022/05/18 08:29:04;;;;;;;0.10;0.10;;;;;;;;;;5147971;27;20201;-61
2022/05/18 08:31:31;;;;;;;0.03;0.03;;;;;;;;;;5144824;27;20238;-60
2022/05/18 08:33:58;;;;;;;0.00;0.00;;;;;;;;;;5148762;27;20207;-60
2022/05/18 08:36:26;;;;;;;0.10;0.10;;;;;;;;;;5144291;27;20280;-60
2022/05/18 08:38:53;;;;;;;0.10;0.10;;;;;;;;;;5149294;27;20204;-61
2022/05/18 08:41:20;;;;;;;0.05;0.05;;;;;;;;;;5143367;27;20245;-60
2022/05/18 08:43:47;;;;;;;0.10;0.10;;;;;;;;;;5150177;27;20241;-61
2022/05/18 08:46:15;;;;;;;0.00;0.00;;;;;;;;;;5142613;27;20237;-61
2022/05/18 08:48:44;;;;;;;0.00;0.00;;;;;;;;;;5150823;27;20415;-61
2022/05/18 08:51:18;;;;;;;0.00;0.00;;;;;;;;;;5141939;27;20238;-61
2022/05/18 08:53:47;;;;;;;0.10;0.10;;;;;;;;;;5150622;27;20210;-59
2022/05/18 08:56:15;;;;;;;0.00;0.00;;;;;;;;;;5142334;27;20583;-60
2022/05/18 08:58:42;;;;;;;0.10;0.10;;;;;;;;;;5151038;27;20197;-60
2022/05/18 09:01:11;;;;;;;0.10;0.10;;;;;;;;;;5141938;27;20260;-60
2022/05/18 09:03:40;;;;;;;0.00;0.00;;;;;;;;;;5151130;27;20249;-59
2022/05/18 09:06:09;;;;;;;0.00;0.00;;;;;;;;;;5141447;27;20237;-59
2022/05/18 09:08:39;;;;;;;0.03;0.03;;;;;;;;;;5151751;27;20195;-60
2022/05/18 09:11:07;;;;;;;0.00;0.00;;;;;;;;;;5141191;27;20466;-60
2022/05/18 09:13:33;;;;;;;0.10;0.10;;;;;;;;;;5151860;27;20228;-60
2022/05/18 09:16:06;;;;;;;0.00;0.00;;;;;;;;;;5140375;27;20236;-60
2022/05/18 09:18:36;;;;;;;0.10;0.10;;;;;;;;;;5152180;27;20229;-62
2022/05/18 09:21:05;;;;;;;0.10;0.10;;;;;;;;;;5140800;27;20237;-59
2022/05/18 09:23:38;;;;;;;0.00;0.00;;;;;;;;;;5152213;27;20442;-60
2022/05/18 09:26:14;;;;;;;0.08;0.08;;;;;;;;;;5141138;27;20284;-60
2022/05/18 09:28:51;;;;;;;1.58;1.58;;;;;;;;;;5150725;27;20297;-61
2022/05/18 09:31:25;;;;;;;0.00;0.00;;;;;;;;;;5142843;27;20264;-62
2022/05/18 09:34:02;;;;;;;0.00;0.00;;;;;;;;;;5148946;27;20196;-60
2022/05/18 09:36:41;;;;;;;0.00;0.00;;;;;;;;;;5143958;27;20314;-59
2022/05/18 09:39:09;;;;;;;0.00;0.00;;;;;;;;;;5146996;27;20213;-61
2022/05/18 09:41:39;;;;;;;0.00;0.00;;;;;;;;;;5144847;27;20259;-61
2022/05/18 09:44:08;;;;;;;0.03;0.03;;;;;;;;;;5147233;27;20538;-61
2022/05/18 09:46:35;;;;;;;0.00;0.00;;;;;;;;;;5146625;27;20508;-59
2022/05/18 09:49:08;;;;;;;0.08;0.08;;;;;;;;;;5151283;27;20199;-61
2022/05/18 09:51:35;;;;;;;0.00;0.00;;;;;;;;;;5148230;27;20242;-60
2022/05/18 09:54:01;;;;;;;0.00;0.00;;;;;;;;;;5151297;27;20202;-60
2022/05/18 09:56:30;;;;;;;0.00;0.00;;;;;;;;;;5147483;27;20246;-59
2022/05/18 09:59:00;;;;;;;0.10;0.10;;;;;;;;;;5152143;27;20397;-62
2022/05/18 10:09:42;;;;;;;0.20;0.20;;;;;;;;;;5147117;27;20227;-64
2022/05/18 10:12:12;;;;;;;0.00;0.00;;;;;;;;;;5152449;27;20431;-64
2022/05/18 10:14:40;;;;;;;0.00;0.00;;;;;;;;;;5147282;27;20208;-65
2022/05/18 10:17:12;;;;;;;0.00;0.00;;;;;;;;;;5152294;27;20243;-66
2022/05/18 10:19:44;;;;;;;0.00;0.00;;;;;;;;;;5148312;27;20236;-64
2022/05/18 10:22:13;;;;;;;0.00;0.00;;;;;;;;;;5152450;27;20247;-63
2022/05/18 10:24:45;;;;;;;0.00;0.00;;;;;;;;;;5146679;27;20480;-64
2022/05/18 10:27:19;;;;;;;0.00;0.00;;;;;;;;;;5152251;27;20316;-65
2022/05/18 10:29:52;;;;;;;0.00;0.00;;;;;;;;;;5146912;27;20212;-62
2022/05/18 10:32:22;;;;;;;0.00;0.00;;;;;;;;;;5151622;27;20299;-64
2022/05/18 10:34:52;;;;;;;0.00;0.00;;;;;;;;;;5146965;27;20217;-65
2022/05/18 10:37:24;;;;;;;0.30;0.30;;;;;;;;;;5152166;27;20592;-65
2022/05/18 10:39:51;;;;;;;0.00;0.00;;;;;;;;;;5147313;27;20421;-67
2022/05/18 10:42:23;;;;;;;0.00;0.00;;;;;;;;;;5152327;27;20236;-66
2022/05/18 10:44:51;;;;;;;0.00;0.00;;;;;;;;;;5146906;27;20205;-66
2022/05/18 10:47:29;;;;;;;0.00;0.00;;;;;;;;;;5152197;27;20236;-67
2022/05/18 10:50:24;;;;;;;0.00;0.00;;;;;;;;;;5146915;27;20398;-65
2022/05/18 10:52:51;;;;;;;0.00;0.00;;;;;;;;;;5144478;27;20221;-66
2022/05/18 10:55:18;;;;;;;0.00;0.00;;;;;;;;;;5137441;27;20219;-67
2022/05/18 10:57:52;;;;;;;0.00;0.00;;;;;;;;;;5160785;27;20194;-64
2022/05/18 11:00:21;;;;;;;0.00;0.00;;;;;;;;;;5137356;27;20201;-64
2022/05/18 11:02:51;;;;;;;0.00;0.00;;;;;;;;;;5160327;27;20236;-62
2022/05/18 11:05:21;;;;;;;0.00;0.00;;;;;;;;;;5137086;27;20223;-64
2022/05/18 11:07:47;;;;;;;0.00;0.00;;;;;;;;;;5160210;27;20226;-63
2022/05/18 11:10:14;;;;;;;0.00;0.00;;;;;;;;;;5136893;27;20523;-63
2022/05/18 11:12:44;;;;;;;0.00;0.00;;;;;;;;;;5160703;27;20445;-64
2022/05/18 11:15:12;;;;;;;0.00;0.00;;;;;;;;;;5135853;27;20193;-68
2022/05/18 11:17:46;;;;;;;0.00;0.00;;;;;;;;;;5161012;27;20475;-63
2022/05/18 11:20:20;;;;;;;0.00;0.00;;;;;;;;;;5135990;27;20253;-63
2022/05/18 11:22:51;;;;;;;0.00;0.00;;;;;;;;;;5159860;27;20375;-62
2022/05/18 11:25:23;;;;;;;0.03;0.03;;;;;;;;;;5136546;27;20213;-64
2022/05/18 11:27:51;;;;;;;0.00;0.00;;;;;;;;;;5159376;27;20249;-62
2022/05/18 11:30:19;;;;;;;0.00;0.00;;;;;;;;;;5136665;27;20314;-63
2022/05/18 11:32:55;;;;;;;0.00;0.00;;;;;;;;;;5159849;27;20292;-63
2022/05/18 11:35:31;;;;;;;0.00;0.00;;;;;;;;;;5137019;27;20377;-64
2022/05/18 11:38:12;;;;;;;0.00;0.00;;;;;;;;;;5157832;27;20213;-64
2022/05/18 11:40:41;;;;;;;0.00;0.00;;;;;;;;;;5125853;27;20334;-63
2022/05/18 11:43:29;;;;;;;0.00;0.00;;;;;;;;;;5156423;27;20207;-64
2022/05/18 11:46:08;;;;;;;0.05;0.05;;;;;;;;;;5141183;27;20442;-63
2022/05/18 11:48:42;;;;;;;0.00;0.00;;;;;;;;;;5153063;27;20268;-62
2022/05/18 11:51:13;;;;;;;0.00;0.00;;;;;;;;;;5143057;27;20240;-63
2022/05/18 11:53:45;;;;;;;0.00;0.00;;;;;;;;;;5152198;27;20549;-64
2022/05/18 11:56:19;;;;;;;0.38;0.38;;;;;;;;;;5143241;27;20567;-63
2022/05/18 11:58:54;;;;;;;0.05;0.05;;;;;;;;;;5150659;27;20519;-62
2022/05/18 12:01:27;;;;;;;0.00;0.00;;;;;;;;;;5143764;27;20299;-63
2022/05/18 12:04:01;;;;;;;0.00;0.00;;;;;;;;;;5150345;27;20530;-62
2022/05/18 12:06:33;;;;;;;0.10;0.10;;;;;;;;;;5145067;27;20273;-63
2022/05/18 12:09:13;;;;;;;0.10;0.10;;;;;;;;;;5148578;27;20189;-62
2022/05/18 12:11:46;;;;;;;0.00;0.00;;;;;;;;;;5146175;27;20291;-62
2022/05/18 12:14:16;;;;;;;0.10;0.10;;;;;;;;;;5146570;27;20262;-62
2022/05/18 12:16:49;;;;;;;0.10;0.10;;;;;;;;;;5146666;27;20622;-63
2022/05/18 12:19:21;;;;;;;0.00;0.00;;;;;;;;;;5146505;27;20246;-63
2022/05/18 12:21:49;;;;;;;0.00;0.00;;;;;;;;;;5147296;27;20613;-61
2022/05/18 12:24:15;;;;;;;0.00;0.00;;;;;;;;;;5146507;27;20204;-63
2022/05/18 12:26:43;;;;;;;0.00;0.00;;;;;;;;;;5146387;27;20260;-62
2022/05/18 12:29:10;;;;;;;0.00;0.00;;;;;;;;;;5147203;27;20209;-63
2022/05/18 12:31:36;;;;;;;0.00;0.00;;;;;;;;;;5145779;27;20318;-63
2022/05/18 12:34:04;;;;;;;0.00;0.00;;;;;;;;;;5148019;27;20452;-62
2022/05/18 12:36:35;;;;;;;0.00;0.00;;;;;;;;;;5145075;27;20236;-63
2022/05/18 12:39:09;;;;;;;0.00;0.00;;;;;;;;;;5148136;27;20334;-62
2022/05/18 12:41:38;;;;;;;0.00;0.00;;;;;;;;;;5145508;27;20271;-63
2022/05/18 12:44:07;;;;;;;0.00;0.00;;;;;;;;;;5147595;27;20197;-62
2022/05/18 12:46:36;;;;;;;0.17;0.17;;;;;;;;;;5144986;27;20298;-62
2022/05/18 12:49:05;;;;;;;0.10;0.10;;;;;;;;;;5147850;27;20569;-67
2022/05/18 12:51:37;;;;;;;0.00;0.00;;;;;;;;;;5144539;27;20604;-63
2022/05/18 12:54:19;;;;;;;0.00;0.00;;;;;;;;;;5147584;27;20232;-69
2022/05/18 12:56:53;;;;;;;0.00;0.00;;;;;;;;;;5146131;27;20538;-68
2022/05/18 12:59:20;;;;;;;0.08;0.08;;;;;;;;;;5146019;27;20232;-69
2022/05/18 13:01:47;;;;;;;0.00;0.00;;;;;;;;;;5146753;27;20243;-71
2022/05/18 13:04:29;;;;;;;0.00;0.00;;;;;;;;;;5146322;27;20200;-63
2022/05/18 13:06:57;;;;;;;0.00;0.00;;;;;;;;;;5147540;27;20295;-63
2022/05/18 13:09:34;;;;;;;0.00;0.00;;;;;;;;;;5144838;27;20284;-68
2022/05/18 13:12:05;;;;;;;0.00;0.00;;;;;;;;;;5148592;27;20406;-66
2022/05/18 13:14:36;;;;;;;0.00;0.00;;;;;;;;;;5143920;27;20232;-66
2022/05/18 13:17:22;;;;;;;0.00;0.00;;;;;;;;;;5148339;27;20256;-69
2022/05/18 13:19:54;;;;;;;0.00;0.00;;;;;;;;;;5143985;27;20189;-66
2022/05/18 13:22:38;;;;;;;0.03;0.03;;;;;;;;;;5152236;27;20246;-69
2022/05/18 13:25:06;;;;;;;0.08;0.08;;;;;;;;;;5147285;27;20570;-68
2022/05/18 13:27:34;;;;;;;0.00;0.00;;;;;;;;;;5135875;27;20201;-64
2022/05/18 13:30:02;;;;;;;0.00;0.00;;;;;;;;;;5147686;27;20247;-64
2022/05/18 13:32:29;;;;;;;0.00;0.00;;;;;;;;;;5152420;27;20555;-64
2022/05/18 13:34:57;;;;;;;0.00;0.00;;;;;;;;;;5147607;27;20394;-63
2022/05/18 13:37:26;;;;;;;0.00;0.00;;;;;;;;;;5152818;27;20313;-64
2022/05/18 13:39:53;;;;;;;0.00;0.00;;;;;;;;;;5148008;27;20201;-64
2022/05/18 13:42:21;;;;;;;0.00;0.00;;;;;;;;;;5153146;27;20396;-64
2022/05/18 13:44:48;;;;;;;0.08;0.08;;;;;;;;;;5148043;27;20212;-64
2022/05/18 13:47:16;;;;;;;0.00;0.00;;;;;;;;;;5152964;27;20236;-64
2022/05/18 13:49:43;;;;;;;0.00;0.00;;;;;;;;;;5147405;27;20515;-64
2022/05/18 13:52:12;;;;;;;0.05;0.05;;;;;;;;;;5153029;27;20682;-63
2022/05/18 13:54:40;;;;;;;0.00;0.00;;;;;;;;;;5147769;27;20588;-64
2022/05/18 13:57:11;;;;;;;0.00;0.00;;;;;;;;;;5152704;27;20250;-64
2022/05/18 13:59:44;;;;;;;0.43;0.43;;;;;;;;;;5147200;27;20484;-64
2022/05/18 14:02:15;;;;;;;0.00;0.00;;;;;;;;;;5152551;27;20256;-64
2022/05/18 14:04:42;;;;;;;0.00;0.00;;;;;;;;;;5147347;27;20416;-61
2022/05/18 14:07:09;;;;;;;0.00;0.00;;;;;;;;;;5152181;27;20237;-60
2022/05/18 14:09:38;;;;;;;0.00;0.00;;;;;;;;;;5146968;27;20226;-60
2022/05/18 14:12:05;;;;;;;0.40;0.40;;;;;;;;;;5152041;27;20240;-59
2022/05/18 14:14:33;;;;;;;0.00;0.00;;;;;;;;;;5146978;27;20225;-60
2022/05/18 14:17:01;;;;;;;0.08;0.08;;;;;;;;;;5151363;27;20240;-60
2022/05/18 14:19:31;;;;;;;0.00;0.00;;;;;;;;;;5147413;27;20202;-61
2022/05/18 14:21:58;;;;;;;0.00;0.00;;;;;;;;;;5150875;27;20240;-61
2022/05/18 14:24:26;;;;;;;0.00;0.00;;;;;;;;;;5147648;27;20564;-60
2022/05/18 14:26:54;;;;;;;0.00;0.00;;;;;;;;;;5150265;27;20237;-60
2022/05/18 14:29:24;;;;;;;0.10;0.10;;;;;;;;;;5147943;27;20421;-61
2022/05/18 14:31:56;;;;;;;0.00;0.00;;;;;;;;;;5149732;27;20248;-60
2022/05/18 14:34:25;;;;;;;0.00;0.00;;;;;;;;;;5147896;27;20280;-60
2022/05/18 14:36:53;;;;;;;0.00;0.00;;;;;;;;;;5149915;27;20240;-60
2022/05/18 14:39:22;;;;;;;0.00;0.00;;;;;;;;;;5147788;27;20209;-61
2022/05/18 14:41:50;;;;;;;0.00;0.00;;;;;;;;;;5149239;27;20237;-61
2022/05/18 14:44:24;;;;;;;20.52;13.35;;;;;;;;;;5148057;27;20206;-61
2022/05/18 14:46:53;;;;;;;0.00;0.00;;;;;;;;;;5149554;27;20573;-60
2022/05/18 14:49:22;;;;;;;0.00;0.00;;;;;;;;;;5148079;27;20507;-61
2022/05/18 14:51:49;;;;;;;0.00;0.00;;;;;;;;;;5149060;27;20240;-61
2022/05/18 14:54:18;;;;;;;0.03;0.03;;;;;;;;;;5147528;27;20297;-60
2022/05/18 14:56:46;;;;;;;0.00;0.00;;;;;;;;;;5148055;27;20240;-60
2022/05/18 14:59:14;;;;;;;0.00;0.00;;;;;;;;;;5147933;27;20201;-59
2022/05/18 15:01:42;;;;;;;0.00;0.00;;;;;;;;;;5147352;27;20252;-60
2022/05/18 15:04:11;;;;;;;0.00;0.00;;;;;;;;;;5148450;27;20197;-61
2022/05/18 15:06:41;;;;;;;0.00;0.00;;;;;;;;;;5146890;27;20232;-60
2022/05/18 15:09:12;;;;;;;0.00;0.00;;;;;;;;;;5148948;27;20202;-59